Time;durP1;ratioP1;P1;durP2;ratioP2;P2;SDS_P1;SDS_P2;PMS_P1;PMS_P2;Temp;Humidity;BMP_temperature;BMP_pressure;BME280_temperature;BME280_humidity;BME280_pressure;Samples;Min_cycle;Max_cycle;Signal;HPM_P1;HPM_P2
2021/08/06 00:01:59;;;;;;;2.70;1.40;;;24.90;53.40;;;;;;5043893;28;20047;-60
2021/08/06 00:04:25;;;;;;;2.63;1.30;;;24.90;53.40;;;;;;5056074;28;20482;-61
2021/08/06 00:06:51;;;;;;;2.88;1.38;;;24.90;53.40;;;;;;5050324;28;20110;-63
2021/08/06 00:09:16;;;;;;;2.58;1.30;;;24.90;53.40;;;;;;5058838;28;20679;-61
2021/08/06 00:11:42;;;;;;;2.97;1.40;;;24.90;53.40;;;;;;5049342;28;20094;-61
2021/08/06 00:14:08;;;;;;;3.28;1.60;;;24.90;53.40;;;;;;5054857;28;20043;-60
2021/08/06 00:16:34;;;;;;;3.20;1.52;;;24.90;53.40;;;;;;5046131;28;20040;-60
2021/08/06 00:19:00;;;;;;;2.40;1.50;;;24.90;54.00;;;;;;5044493;28;20411;-61
2021/08/06 00:21:25;;;;;;;3.28;1.60;;;24.90;53.50;;;;;;5040042;28;20033;-61
2021/08/06 00:23:51;;;;;;;2.38;1.50;;;24.90;53.50;;;;;;5051204;28;20051;-63
2021/08/06 00:26:17;;;;;;;2.30;1.20;;;24.80;53.40;;;;;;5059035;28;20368;-61
2021/08/06 00:28:43;;;;;;;3.05;1.35;;;24.80;53.40;;;;;;5047515;28;20051;-63
2021/08/06 00:31:09;;;;;;;2.65;1.40;;;24.80;53.40;;;;;;5054873;28;20041;-60
2021/08/06 00:33:34;;;;;;;2.30;1.30;;;24.80;53.40;;;;;;5056984;28;20068;-59
2021/08/06 00:36:01;;;;;;;2.78;1.40;;;24.90;53.50;;;;;;5048967;28;20520;-61
2021/08/06 00:38:26;;;;;;;2.78;1.50;;;24.80;53.50;;;;;;5050769;28;20028;-63
2021/08/06 00:40:52;;;;;;;2.20;1.20;;;24.80;53.50;;;;;;5048238;28;20029;-59
2021/08/06 00:43:18;;;;;;;2.28;1.40;;;24.80;53.50;;;;;;5042751;28;20476;-60
2021/08/06 00:45:45;;;;;;;2.60;1.33;;;24.80;53.50;;;;;;5055199;28;20420;-60
2021/08/06 00:48:10;;;;;;;2.75;1.40;;;24.80;53.50;;;;;;5048323;28;20051;-62
2021/08/06 00:50:37;;;;;;;3.38;1.50;;;24.80;53.50;;;;;;5047808;28;20025;-59
2021/08/06 00:53:03;;;;;;;2.33;1.30;;;24.80;53.50;;;;;;5055567;28;20057;-61
2021/08/06 00:55:29;;;;;;;2.10;1.38;;;24.80;53.50;;;;;;5045825;28;20055;-60
2021/08/06 00:57:54;;;;;;;2.60;1.23;;;24.80;53.50;;;;;;5045655;28;20314;-63
2021/08/06 01:00:20;;;;;;;1.63;1.10;;;24.80;53.50;;;;;;5052867;28;20034;-62
2021/08/06 01:03:10;;;;;;;2.15;1.17;;;24.80;53.50;;;;;;5048389;28;20029;-61
2021/08/06 01:05:42;;;;;;;2.00;1.30;;;24.70;53.50;;;;;;5045654;28;20416;-61
2021/08/06 01:08:17;;;;;;;2.58;1.30;;;24.70;53.50;;;;;;5048243;28;20036;-62
2021/08/06 01:11:03;;;;;;;2.20;1.23;;;24.70;53.50;;;;;;5050913;28;20527;-62
2021/08/06 01:13:44;;;;;;;2.28;1.20;;;24.70;53.50;;;;;;5052034;28;20036;-61
2021/08/06 01:16:12;;;;;;;2.33;1.27;;;24.80;53.60;;;;;;5033026;28;20033;-60
2021/08/06 01:18:42;;;;;;;2.60;1.30;;;24.70;53.60;;;;;;5044414;28;20369;-62
2021/08/06 01:21:14;;;;;;;2.47;1.17;;;24.70;53.50;;;;;;5054586;28;20145;-61
2021/08/06 01:23:41;;;;;;;2.67;1.38;;;24.70;53.60;;;;;;5049811;28;20659;-61
2021/08/06 01:26:10;;;;;;;2.33;1.30;;;24.70;53.50;;;;;;5060999;28;20025;-63
2021/08/06 01:28:43;;;;;;;2.25;1.27;;;24.70;53.60;;;;;;5048179;28;20044;-61
2021/08/06 01:31:09;;;;;;;2.25;1.40;;;24.70;53.60;;;;;;5051005;28;20140;-61
2021/08/06 01:33:35;;;;;;;2.08;1.27;;;24.70;53.60;;;;;;5056557;28;20681;-63
2021/08/06 01:36:01;;;;;;;2.45;1.25;;;24.70;53.60;;;;;;5058292;28;20052;-61
2021/08/06 01:38:27;;;;;;;1.85;1.10;;;24.70;54.10;;;;;;5061686;28;20495;-60
2021/08/06 01:41:05;;;;;;;1.98;1.20;;;24.60;53.50;;;;;;5048062;28;20040;-60
2021/08/06 01:43:50;;;;;;;1.75;1.15;;;24.60;53.50;;;;;;5038653;28;20065;-62
2021/08/06 01:46:27;;;;;;;1.65;1.10;;;24.60;53.60;;;;;;5042834;28;20138;-62
2021/08/06 01:49:01;;;;;;;1.92;1.25;;;24.60;53.60;;;;;;5045144;28;20063;-64
2021/08/06 01:51:30;;;;;;;2.35;1.23;;;24.60;53.60;;;;;;5041785;28;20036;-64
2021/08/06 01:53:57;;;;;;;2.22;1.23;;;24.60;53.60;;;;;;5038382;28;20020;-61
2021/08/06 01:56:23;;;;;;;1.75;1.15;;;24.60;53.60;;;;;;5037659;28;20123;-60
2021/08/06 01:58:55;;;;;;;1.80;1.05;;;24.60;53.60;;;;;;5048816;28;20025;-63
2021/08/06 02:01:22;;;;;;;1.75;1.10;;;24.60;53.60;;;;;;5038276;28;20038;-60
2021/08/06 02:03:48;;;;;;;1.92;1.17;;;24.60;53.60;;;;;;5052314;28;20364;-63
2021/08/06 02:06:17;;;;;;;2.05;1.10;;;24.60;53.60;;;;;;5050508;28;20033;-61
2021/08/06 02:08:44;;;;;;;2.22;1.25;;;24.60;53.60;;;;;;5046432;28;20025;-63
2021/08/06 02:11:11;;;;;;;2.10;1.20;;;24.60;53.60;;;;;;5051875;28;20105;-63
2021/08/06 02:13:38;;;;;;;1.90;1.17;;;24.60;53.60;;;;;;5041233;28;20116;-61
2021/08/06 02:16:04;;;;;;;2.08;1.10;;;24.60;53.60;;;;;;5044868;28;20434;-61
2021/08/06 02:18:31;;;;;;;2.00;1.10;;;24.60;53.60;;;;;;5044113;28;20060;-59
2021/08/06 02:21:05;;;;;;;1.88;1.10;;;24.60;53.70;;;;;;5049406;28;20037;-64
2021/08/06 02:23:36;;;;;;;1.55;1.00;;;24.60;54.20;;;;;;5040240;28;20072;-63
2021/08/06 02:26:03;;;;;;;1.77;1.10;;;24.60;53.70;;;;;;5043238;28;20481;-62
2021/08/06 02:28:29;;;;;;;1.58;1.10;;;24.60;53.60;;;;;;5045670;28;20037;-64
2021/08/06 02:30:55;;;;;;;2.00;1.10;;;24.60;53.60;;;;;;5046179;28;20692;-64
2021/08/06 02:33:22;;;;;;;1.75;1.02;;;24.60;53.70;;;;;;5045980;28;20147;-63
2021/08/06 02:35:47;;;;;;;1.77;1.10;;;24.50;53.60;;;;;;5049218;28;20035;-62
2021/08/06 02:38:21;;;;;;;3.13;1.10;;;24.50;53.60;;;;;;5046172;28;20021;-57
2021/08/06 02:40:47;;;;;;;1.92;1.10;;;24.60;53.70;;;;;;5050584;28;20636;-63
2021/08/06 02:43:13;;;;;;;2.47;1.10;;;24.60;53.70;;;;;;5043243;28;20839;-62
2021/08/06 02:45:39;;;;;;;1.88;1.10;;;24.60;53.70;;;;;;5049703;28;20117;-62
2021/08/06 02:48:05;;;;;;;1.55;1.00;;;24.60;53.70;;;;;;5060319;28;20376;-61
2021/08/06 02:50:31;;;;;;;1.58;1.00;;;24.50;53.70;;;;;;5050013;28;20380;-61
2021/08/06 02:52:56;;;;;;;2.20;1.38;;;24.60;53.70;;;;;;5050442;28;20019;-61
2021/08/06 02:55:22;;;;;;;1.58;0.98;;;24.60;53.70;;;;;;5051253;28;20102;-62
2021/08/06 02:57:47;;;;;;;1.52;1.00;;;24.50;53.70;;;;;;5047548;28;20460;-60
2021/08/06 03:00:14;;;;;;;2.13;1.10;;;24.50;53.70;;;;;;5050378;28;20029;-61
2021/08/06 03:02:39;;;;;;;1.95;1.10;;;24.50;53.70;;;;;;5054581;28;20030;-60
2021/08/06 03:05:06;;;;;;;1.90;1.08;;;24.50;53.70;;;;;;5051465;28;20037;-63
2021/08/06 03:07:31;;;;;;;1.30;0.98;;;24.50;53.70;;;;;;5047986;28;21818;-62
2021/08/06 03:09:57;;;;;;;1.83;1.17;;;24.50;53.70;;;;;;5043583;28;20044;-60
2021/08/06 03:12:23;;;;;;;1.60;1.00;;;24.50;53.70;;;;;;5047806;28;20376;-62
2021/08/06 03:14:48;;;;;;;1.33;0.90;;;24.50;53.70;;;;;;5046525;28;20492;-63
2021/08/06 03:17:14;;;;;;;1.52;1.10;;;24.40;54.20;;;;;;5039074;28;20039;-62
2021/08/06 03:19:40;;;;;;;1.75;0.90;;;24.50;53.70;;;;;;5046904;28;20033;-62
2021/08/06 03:22:05;;;;;;;1.75;1.00;;;24.50;53.70;;;;;;5051161;28;20086;-62
2021/08/06 03:24:31;;;;;;;1.48;1.00;;;24.40;53.70;;;;;;5049907;28;20515;-60
2021/08/06 03:26:57;;;;;;;1.42;0.90;;;24.50;53.70;;;;;;5048827;28;20044;-64
2021/08/06 03:29:22;;;;;;;1.50;1.00;;;24.50;53.80;;;;;;5049928;28;20063;-62
2021/08/06 03:31:48;;;;;;;1.42;1.00;;;24.50;53.70;;;;;;5048044;28;20060;-61
2021/08/06 03:34:13;;;;;;;1.48;0.90;;;24.40;53.70;;;;;;5044060;28;20032;-63
2021/08/06 03:36:39;;;;;;;2.10;1.10;;;24.40;53.70;;;;;;5049636;28;20588;-62
2021/08/06 03:39:05;;;;;;;1.80;1.10;;;24.40;53.70;;;;;;5050742;28;20027;-62
2021/08/06 03:41:31;;;;;;;1.80;1.02;;;24.40;53.70;;;;;;5049283;28;20044;-63
2021/08/06 03:43:57;;;;;;;1.70;1.00;;;24.40;53.70;;;;;;5045036;28;20086;-63
2021/08/06 03:46:22;;;;;;;1.77;1.10;;;24.40;53.70;;;;;;5050170;28;20599;-64
2021/08/06 03:48:48;;;;;;;1.42;1.00;;;24.40;53.70;;;;;;5046156;28;20060;-62
2021/08/06 03:51:14;;;;;;;1.45;0.93;;;24.40;53.70;;;;;;5048087;28;20029;-61
2021/08/06 03:53:40;;;;;;;1.75;1.10;;;24.40;53.80;;;;;;5046396;28;20028;-62
2021/08/06 03:56:06;;;;;;;2.00;1.10;;;24.40;53.80;;;;;;5052799;28;20681;-63
2021/08/06 03:58:31;;;;;;;1.15;0.80;;;24.40;53.80;;;;;;5047983;28;20044;-62
2021/08/06 04:00:57;;;;;;;1.58;1.00;;;24.40;53.80;;;;;;5048406;28;20094;-64
2021/08/06 04:03:22;;;;;;;1.33;0.90;;;24.40;53.80;;;;;;5048696;28;20108;-61
2021/08/06 04:05:48;;;;;;;2.28;0.98;;;24.40;53.80;;;;;;5047667;28;20040;-63
2021/08/06 04:08:13;;;;;;;1.52;1.00;;;24.30;53.70;;;;;;5042751;28;20025;-63
2021/08/06 04:10:39;;;;;;;1.45;0.90;;;24.30;53.70;;;;;;5044298;28;20029;-62
2021/08/06 04:13:05;;;;;;;1.77;1.00;;;24.30;53.70;;;;;;5045044;28;20037;-61
2021/08/06 04:15:31;;;;;;;1.50;0.82;;;24.30;53.80;;;;;;5045289;28;20024;-63
2021/08/06 04:17:57;;;;;;;1.10;0.82;;;24.30;53.70;;;;;;5038657;28;20104;-63
2021/08/06 04:20:23;;;;;;;1.55;0.88;;;24.30;53.70;;;;;;5039976;28;20417;-60
2021/08/06 04:22:48;;;;;;;1.55;0.98;;;24.30;53.70;;;;;;5041946;28;20043;-62
2021/08/06 04:25:14;;;;;;;1.25;0.90;;;24.30;53.70;;;;;;5044081;28;20024;-61
2021/08/06 04:27:40;;;;;;;1.08;0.80;;;24.30;53.80;;;;;;5043502;28;20082;-60
2021/08/06 04:30:08;;;;;;;1.00;0.80;;;24.30;53.70;;;;;;5041426;28;20750;-62
2021/08/06 04:32:34;;;;;;;1.02;0.75;;;24.30;53.70;;;;;;5042482;28;20086;-61
2021/08/06 04:34:59;;;;;;;1.45;0.90;;;24.30;54.30;;;;;;5039803;28;20029;-61
2021/08/06 04:37:25;;;;;;;1.67;1.00;;;24.30;53.70;;;;;;5037924;28;20029;-59
2021/08/06 04:39:51;;;;;;;1.23;0.85;;;24.30;53.80;;;;;;5041436;28;20503;-60
2021/08/06 04:42:16;;;;;;;1.00;0.80;;;24.30;53.70;;;;;;5040909;28;20034;-59
2021/08/06 04:44:42;;;;;;;1.40;0.90;;;24.30;53.70;;;;;;5038667;28;20053;-60
2021/08/06 04:47:08;;;;;;;1.30;0.80;;;24.30;53.80;;;;;;5039179;28;20029;-62
2021/08/06 04:49:34;;;;;;;1.40;0.90;;;24.30;53.80;;;;;;5040300;28;20025;-62
2021/08/06 04:51:59;;;;;;;1.77;0.98;;;24.30;53.70;;;;;;5041312;28;20108;-63
2021/08/06 04:54:25;;;;;;;1.35;0.80;;;24.30;53.70;;;;;;5038539;28;20033;-61
2021/08/06 04:56:51;;;;;;;1.42;1.20;;;24.30;53.70;;;;;;5040193;28;20551;-60
2021/08/06 04:59:17;;;;;;;1.17;0.88;;;24.30;53.70;;;;;;5041865;28;20472;-63
2021/08/06 05:01:43;;;;;;;2.22;1.00;;;24.20;53.70;;;;;;5037920;28;20049;-63
2021/08/06 05:04:08;;;;;;;1.02;0.80;;;24.30;53.70;;;;;;5038035;28;20037;-58
2021/08/06 05:06:34;;;;;;;1.75;1.05;;;24.30;53.70;;;;;;5040245;28;20369;-64
2021/08/06 05:09:00;;;;;;;1.40;0.90;;;24.30;53.70;;;;;;5038208;28;20044;-60
2021/08/06 05:11:26;;;;;;;1.88;0.90;;;24.30;53.70;;;;;;5041343;28;20021;-61
2021/08/06 05:13:52;;;;;;;1.92;1.00;;;24.20;53.70;;;;;;5034429;28;20029;-61
2021/08/06 05:16:17;;;;;;;1.13;0.82;;;24.20;53.70;;;;;;5034365;28;20032;-59
2021/08/06 05:18:43;;;;;;;1.40;0.90;;;24.20;53.70;;;;;;5039310;28;20024;-61
2021/08/06 05:21:09;;;;;;;2.72;0.93;;;24.20;53.70;;;;;;5041164;28;20040;-59
2021/08/06 05:23:34;;;;;;;1.02;0.80;;;24.20;53.70;;;;;;5034417;28;20033;-61
2021/08/06 05:26:00;;;;;;;1.77;0.93;;;24.20;53.70;;;;;;5038165;28;20036;-57
2021/08/06 05:28:25;;;;;;;1.95;0.95;;;24.20;53.70;;;;;;5044238;28;20366;-61
2021/08/06 05:30:51;;;;;;;1.40;0.80;;;24.20;53.70;;;;;;5038807;28;20453;-60
2021/08/06 05:33:17;;;;;;;1.50;0.93;;;24.20;53.70;;;;;;5039565;28;20070;-64
2021/08/06 05:35:42;;;;;;;1.08;0.77;;;24.20;53.70;;;;;;5040148;28;20039;-62
2021/08/06 05:38:08;;;;;;;1.27;0.70;;;24.20;53.70;;;;;;5041674;28;20037;-61
2021/08/06 05:40:35;;;;;;;1.30;0.80;;;24.20;53.70;;;;;;5040190;28;20020;-61
2021/08/06 05:43:00;;;;;;;1.92;0.90;;;24.20;53.70;;;;;;5032350;28;20029;-60
2021/08/06 05:45:26;;;;;;;1.42;0.88;;;24.20;53.70;;;;;;5037395;28;20095;-63
2021/08/06 05:47:54;;;;;;;1.20;0.80;;;24.20;53.70;;;;;;5039730;28;20017;-63
2021/08/06 05:50:23;;;;;;;1.10;0.80;;;24.20;53.70;;;;;;5041849;28;20130;-61
2021/08/06 05:52:48;;;;;;;1.30;0.80;;;24.20;53.70;;;;;;5039234;28;20455;-62
2021/08/06 05:55:15;;;;;;;1.98;0.90;;;24.20;53.70;;;;;;5038684;28;20033;-62
2021/08/06 05:57:41;;;;;;;1.13;0.75;;;24.20;53.70;;;;;;5042251;28;20063;-61
2021/08/06 06:00:08;;;;;;;1.45;0.90;;;24.20;53.70;;;;;;5041403;28;20037;-63
2021/08/06 06:02:34;;;;;;;1.45;0.80;;;24.20;53.70;;;;;;5039524;28;20025;-62
2021/08/06 06:05:00;;;;;;;1.00;0.80;;;24.10;53.70;;;;;;5041668;28;20381;-59
2021/08/06 06:07:25;;;;;;;0.95;0.70;;;24.10;53.70;;;;;;5037547;28;20029;-61
2021/08/06 06:09:51;;;;;;;1.38;0.85;;;24.10;53.70;;;;;;5043722;28;20068;-61
2021/08/06 06:12:17;;;;;;;1.45;1.00;;;24.10;53.70;;;;;;5039160;28;20110;-63
2021/08/06 06:14:43;;;;;;;1.17;0.80;;;24.20;53.70;;;;;;5042253;28;20065;-60
2021/08/06 06:17:11;;;;;;;0.98;0.80;;;24.10;53.70;;;;;;5038664;28;20097;-62
2021/08/06 06:19:37;;;;;;;1.10;0.80;;;24.10;53.70;;;;;;5041035;28;20127;-61
2021/08/06 06:22:04;;;;;;;0.88;0.75;;;24.10;53.70;;;;;;5046191;28;20429;-63
2021/08/06 06:24:29;;;;;;;1.13;0.80;;;24.10;53.70;;;;;;5040094;28;20079;-62
2021/08/06 06:26:55;;;;;;;1.52;0.88;;;24.10;53.70;;;;;;5042906;28;20091;-63
2021/08/06 06:29:20;;;;;;;1.02;0.80;;;24.10;54.30;;;;;;5040515;28;20040;-60
2021/08/06 06:31:46;;;;;;;1.20;0.70;;;24.10;53.70;;;;;;5041005;28;20142;-59
2021/08/06 06:34:12;;;;;;;0.93;0.80;;;24.20;53.80;;;;;;5040268;28;20382;-61
2021/08/06 06:36:37;;;;;;;1.55;1.00;;;24.10;53.70;;;;;;5041195;28;20032;-59
2021/08/06 06:39:03;;;;;;;1.23;0.77;;;24.10;53.80;;;;;;5046086;28;20466;-62
2021/08/06 06:41:29;;;;;;;1.42;0.77;;;24.10;53.80;;;;;;5042445;28;20064;-62
2021/08/06 06:43:54;;;;;;;1.80;0.90;;;24.10;53.80;;;;;;5040395;28;20571;-61
2021/08/06 06:46:20;;;;;;;1.35;0.82;;;24.10;53.80;;;;;;5050812;28;20080;-60
2021/08/06 06:48:45;;;;;;;0.98;0.70;;;24.10;53.80;;;;;;5039729;28;20121;-59
2021/08/06 06:51:11;;;;;;;1.48;0.82;;;24.10;53.80;;;;;;5045020;28;20967;-62
2021/08/06 06:53:37;;;;;;;1.20;0.80;;;24.10;53.80;;;;;;5040639;28;20033;-62
2021/08/06 06:56:02;;;;;;;1.05;0.80;;;24.10;53.80;;;;;;5041882;28;20035;-63
2021/08/06 06:58:28;;;;;;;1.73;1.00;;;24.10;53.80;;;;;;5039302;28;20048;-63
2021/08/06 07:00:56;;;;;;;1.40;0.80;;;24.10;53.80;;;;;;5043239;28;20479;-60
2021/08/06 07:03:22;;;;;;;1.20;0.90;;;24.10;53.80;;;;;;5039711;28;20016;-62
2021/08/06 07:05:47;;;;;;;2.35;0.90;;;24.10;53.80;;;;;;5047468;28;20093;-63
2021/08/06 07:08:13;;;;;;;1.75;0.80;;;24.10;53.80;;;;;;5041154;28;20021;-62
2021/08/06 07:10:39;;;;;;;1.20;0.90;;;24.10;53.80;;;;;;5044594;28;20477;-60
2021/08/06 07:13:04;;;;;;;1.42;0.80;;;24.10;53.80;;;;;;5042380;28;20396;-64
2021/08/06 07:15:30;;;;;;;1.20;0.80;;;24.10;53.80;;;;;;5040826;28;20076;-65
2021/08/06 07:17:56;;;;;;;1.45;0.88;;;24.10;53.80;;;;;;5056634;28;20037;-65
2021/08/06 07:20:21;;;;;;;1.20;0.90;;;24.10;53.80;;;;;;5041023;28;20105;-65
2021/08/06 07:22:48;;;;;;;1.77;0.95;;;24.10;53.80;;;;;;5043321;28;20033;-62
2021/08/06 07:25:15;;;;;;;2.55;0.90;;;24.00;53.80;;;;;;5044613;28;20504;-62
2021/08/06 07:27:42;;;;;;;1.50;0.80;;;24.00;53.80;;;;;;5051169;28;20033;-61
2021/08/06 07:30:09;;;;;;;1.35;1.10;;;24.10;53.80;;;;;;5051072;28;20040;-61
2021/08/06 07:32:35;;;;;;;1.70;0.90;;;24.10;53.80;;;;;;5040050;28;20408;-62
2021/08/06 07:35:02;;;;;;;1.17;0.80;;;24.10;53.90;;;;;;5044822;28;20029;-63
2021/08/06 07:37:28;;;;;;;1.33;0.80;;;24.00;53.80;;;;;;5047395;28;20095;-57
2021/08/06 07:39:54;;;;;;;1.52;0.77;;;24.00;53.80;;;;;;5047051;28;20025;-62
2021/08/06 07:42:20;;;;;;;1.75;0.90;;;24.00;53.80;;;;;;5043955;28;20040;-61
2021/08/06 07:44:46;;;;;;;1.65;0.98;;;24.00;53.80;;;;;;5045101;28;20049;-61
2021/08/06 07:47:12;;;;;;;1.90;0.90;;;24.00;53.80;;;;;;5036395;28;20025;-62
2021/08/06 07:49:40;;;;;;;1.20;0.80;;;24.10;53.80;;;;;;5044099;28;20079;-62
2021/08/06 07:52:08;;;;;;;1.95;0.98;;;24.00;53.80;;;;;;5047321;28;20754;-61
2021/08/06 07:54:33;;;;;;;1.95;0.90;;;24.00;53.80;;;;;;5042082;28;20127;-63
2021/08/06 07:56:59;;;;;;;1.77;0.85;;;24.10;53.80;;;;;;5042504;28;20123;-64
2021/08/06 07:59:25;;;;;;;1.50;0.82;;;24.00;53.80;;;;;;5045284;28;20035;-62
2021/08/06 08:01:51;;;;;;;2.35;0.93;;;24.00;53.80;;;;;;5043530;28;20033;-59
2021/08/06 08:04:16;;;;;;;1.10;0.70;;;24.00;53.80;;;;;;5043822;28;20055;-64
2021/08/06 08:06:42;;;;;;;1.33;0.82;;;24.00;53.80;;;;;;5042964;28;20675;-61
2021/08/06 08:09:07;;;;;;;1.40;0.80;;;24.00;53.80;;;;;;5043593;28;21154;-59
2021/08/06 08:11:33;;;;;;;2.03;1.00;;;24.00;53.80;;;;;;5042723;28;20041;-61
2021/08/06 08:13:59;;;;;;;1.15;0.77;;;24.00;53.80;;;;;;5039666;28;20175;-62
2021/08/06 08:16:24;;;;;;;1.50;0.85;;;24.00;53.80;;;;;;5043720;28;20060;-61
2021/08/06 08:18:50;;;;;;;1.52;0.95;;;24.00;53.80;;;;;;5046577;28;20021;-61
2021/08/06 08:21:16;;;;;;;0.90;0.80;;;24.00;53.80;;;;;;5044355;28;20051;-60
2021/08/06 08:23:41;;;;;;;1.33;0.80;;;24.00;53.80;;;;;;5043587;28;20611;-60
2021/08/06 08:26:07;;;;;;;1.08;0.80;;;24.00;53.80;;;;;;5048042;28;20055;-61
2021/08/06 08:28:33;;;;;;;1.45;0.90;;;24.00;53.80;;;;;;5045332;28;20033;-60
2021/08/06 08:30:58;;;;;;;1.25;0.88;;;24.00;53.80;;;;;;5047850;28;20384;-60
2021/08/06 08:33:25;;;;;;;1.70;0.98;;;24.00;53.80;;;;;;5039535;28;20052;-64
2021/08/06 08:35:51;;;;;;;1.80;0.93;;;24.00;53.80;;;;;;5040915;28;20596;-64
2021/08/06 08:38:17;;;;;;;1.17;0.80;;;24.00;53.90;;;;;;5052560;28;20100;-61
2021/08/06 08:40:43;;;;;;;1.60;0.85;;;24.00;53.80;;;;;;5043704;28;20111;-61
2021/08/06 08:43:09;;;;;;;2.05;0.98;;;24.00;53.80;;;;;;5042697;28;20059;-64
2021/08/06 08:45:40;;;;;;;1.20;0.80;;;24.00;53.90;;;;;;5045342;28;20087;-61
2021/08/06 08:48:07;;;;;;;1.45;0.93;;;24.00;53.90;;;;;;5045241;28;20017;-61
2021/08/06 08:50:34;;;;;;;1.63;0.90;;;24.00;53.90;;;;;;5044594;28;20844;-61
2021/08/06 08:52:59;;;;;;;2.00;1.00;;;24.00;53.90;;;;;;5043415;28;20025;-64
2021/08/06 08:55:26;;;;;;;2.20;0.80;;;24.00;53.90;;;;;;5041290;28;20064;-61
2021/08/06 08:57:52;;;;;;;1.63;0.95;;;24.00;54.00;;;;;;5038665;28;20127;-60
2021/08/06 09:00:17;;;;;;;1.63;0.90;;;24.00;53.90;;;;;;5038778;28;20051;-63
2021/08/06 09:02:44;;;;;;;1.42;0.85;;;24.00;54.00;;;;;;5043536;28;20359;-59
2021/08/06 09:05:20;;;;;;;1.70;0.82;;;24.00;53.90;;;;;;5041999;28;20438;-62
2021/08/06 09:07:46;;;;;;;1.50;0.90;;;24.00;53.90;;;;;;5037924;28;20029;-64
2021/08/06 09:10:19;;;;;;;1.63;1.00;;;24.00;54.00;;;;;;5041132;28;20057;-61
2021/08/06 09:12:51;;;;;;;1.73;0.82;;;24.00;53.90;;;;;;5036317;28;20025;-60
2021/08/06 09:15:38;;;;;;;1.63;0.80;;;24.00;53.90;;;;;;5039115;28;20112;-61
2021/08/06 09:18:03;;;;;;;1.65;0.90;;;24.00;54.00;;;;;;5038700;28;20090;-60
2021/08/06 09:20:39;;;;;;;1.88;1.00;;;24.00;54.00;;;;;;5043105;28;20032;-60
2021/08/06 09:23:05;;;;;;;1.23;0.60;;;24.00;54.00;;;;;;5038516;28;20033;-61
2021/08/06 09:25:35;;;;;;;1.05;0.80;;;24.00;54.00;;;;;;5034036;28;20724;-62
2021/08/06 09:28:03;;;;;;;1.13;0.80;;;24.00;54.00;;;;;;5038670;28;20091;-62
2021/08/06 09:30:39;;;;;;;1.58;0.80;;;24.00;54.00;;;;;;5041372;28;20098;-59
2021/08/06 09:33:08;;;;;;;1.40;0.80;;;24.00;54.00;;;;;;5044880;28;20144;-60
2021/08/06 09:35:35;;;;;;;0.82;0.60;;;24.00;54.00;;;;;;5051922;28;20029;-60
2021/08/06 09:38:01;;;;;;;1.23;0.70;;;24.00;54.00;;;;;;5039555;28;20100;-61
2021/08/06 09:40:35;;;;;;;1.52;0.80;;;24.00;54.00;;;;;;5038340;28;20078;-61
2021/08/06 09:43:04;;;;;;;1.15;0.75;;;24.00;54.00;;;;;;5037434;28;20040;-61
2021/08/06 09:45:38;;;;;;;0.95;0.70;;;24.00;54.00;;;;;;5040352;28;20377;-61
2021/08/06 09:48:05;;;;;;;1.02;0.80;;;24.00;54.00;;;;;;5041612;28;20143;-60
2021/08/06 09:50:32;;;;;;;2.15;0.80;;;24.00;54.00;;;;;;5038045;28;20032;-62
2021/08/06 09:52:58;;;;;;;0.90;0.80;;;24.00;54.00;;;;;;5038554;28;20565;-60
2021/08/06 09:55:50;;;;;;;1.20;0.80;;;24.00;54.60;;;;;;5040328;28;20024;-61
2021/08/06 09:58:20;;;;;;;1.15;0.80;;;24.00;54.00;;;;;;5038339;28;20029;-61
2021/08/06 10:00:50;;;;;;;1.10;0.80;;;24.00;54.00;;;;;;5039799;28;20440;-61
2021/08/06 10:03:37;;;;;;;2.20;0.80;;;24.00;54.00;;;;;;5039562;28;20425;-58
2021/08/06 10:06:14;;;;;;;1.70;1.00;;;24.00;54.00;;;;;;5036429;28;20079;-60
2021/08/06 10:08:41;;;;;;;1.25;0.80;;;24.00;54.00;;;;;;5035636;28;20632;-59
2021/08/06 10:11:07;;;;;;;0.80;0.70;;;24.00;54.00;;;;;;5040500;28;20055;-62
2021/08/06 10:13:33;;;;;;;0.93;0.80;;;24.00;54.00;;;;;;5044327;28;20037;-63
2021/08/06 10:15:59;;;;;;;1.25;0.70;;;24.00;54.00;;;;;;5048517;28;20040;-59
2021/08/06 10:18:25;;;;;;;1.55;1.08;;;24.00;54.00;;;;;;5039412;28;21416;-59
2021/08/06 10:20:51;;;;;;;2.15;0.95;;;24.00;54.00;;;;;;5040280;28;20418;-61
2021/08/06 10:23:17;;;;;;;0.93;0.80;;;24.00;54.00;;;;;;5036632;28;20116;-64
2021/08/06 10:25:43;;;;;;;1.10;0.80;;;24.00;54.00;;;;;;5042504;28;20037;-62
2021/08/06 10:28:09;;;;;;;1.02;0.80;;;23.90;54.00;;;;;;5045859;28;20488;-60
2021/08/06 10:30:39;;;;;;;1.17;0.70;;;24.00;54.10;;;;;;5035838;28;20048;-58
2021/08/06 10:33:26;;;;;;;1.20;0.80;;;24.00;54.10;;;;;;5034687;28;20044;-60
2021/08/06 10:36:02;;;;;;;0.65;0.60;;;24.00;54.10;;;;;;5040481;28;20472;-60
2021/08/06 10:38:34;;;;;;;0.98;0.70;;;24.10;54.10;;;;;;5041910;28;20025;-61
2021/08/06 10:41:01;;;;;;;0.80;0.80;;;24.10;54.00;;;;;;5051892;28;20021;-60
2021/08/06 10:43:40;;;;;;;1.50;0.60;;;24.10;53.90;;;;;;5039852;28;20029;-60
2021/08/06 10:46:08;;;;;;;1.17;0.82;;;24.20;54.00;;;;;;5036653;28;20139;-62
2021/08/06 10:48:35;;;;;;;1.77;0.90;;;24.20;53.90;;;;;;5037916;28;20132;-61
2021/08/06 10:51:16;;;;;;;1.10;0.80;;;24.20;53.80;;;;;;5037672;28;20033;-62
2021/08/06 10:53:42;;;;;;;1.63;0.80;;;24.30;53.80;;;;;;5041087;28;20025;-60
2021/08/06 10:56:17;;;;;;;0.90;0.70;;;24.30;53.70;;;;;;5038247;28;20033;-61
2021/08/06 10:58:48;;;;;;;1.48;0.80;;;24.30;53.70;;;;;;5036442;28;20067;-61
2021/08/06 11:01:30;;;;;;;1.88;0.80;;;24.40;53.60;;;;;;5042709;28;20598;-58
2021/08/06 11:03:57;;;;;;;1.55;0.90;;;24.40;53.60;;;;;;5041863;28;20100;-57
2021/08/06 11:06:32;;;;;;;1.38;0.90;;;24.40;53.50;;;;;;5042784;28;20544;-61
2021/08/06 11:09:26;;;;;;;0.82;0.80;;;24.50;53.50;;;;;;5049452;28;20052;-60
2021/08/06 11:12:09;;;;;;;0.85;0.80;;;24.50;53.40;;;;;;5028636;28;20580;-59
2021/08/06 11:14:35;;;;;;;1.10;0.70;;;24.50;53.40;;;;;;5046065;28;20032;-60
2021/08/06 11:17:23;;;;;;;1.17;0.80;;;24.50;53.40;;;;;;5048800;28;20121;-60
2021/08/06 11:20:17;;;;;;;1.23;0.70;;;24.60;53.40;;;;;;5048384;28;20031;-60
2021/08/06 11:22:45;;;;;;;1.08;0.80;;;24.60;53.30;;;;;;5036076;28;20190;-60
2021/08/06 11:25:15;;;;;;;1.00;0.70;;;24.60;53.30;;;;;;5055648;28;20671;-60
2021/08/06 11:27:44;;;;;;;1.60;0.88;;;24.60;53.30;;;;;;5047931;28;20405;-58
2021/08/06 11:30:36;;;;;;;1.90;0.80;;;24.60;53.30;;;;;;5050927;28;20818;-61
2021/08/06 11:33:03;;;;;;;1.40;0.80;;;24.70;53.30;;;;;;5044215;28;20028;-61
2021/08/06 11:35:35;;;;;;;2.05;0.80;;;24.70;53.30;;;;;;5045189;28;20031;-60
2021/08/06 11:38:03;;;;;;;0.90;0.70;;;24.70;53.20;;;;;;5049236;28;20021;-61
2021/08/06 11:40:40;;;;;;;1.00;0.80;;;24.80;53.20;;;;;;5047663;28;20036;-60
2021/08/06 11:43:12;;;;;;;0.98;0.70;;;24.80;53.20;;;;;;5045557;28;20086;-57
2021/08/06 11:45:40;;;;;;;1.33;0.80;;;24.80;53.10;;;;;;5048949;28;20063;-60
2021/08/06 11:48:06;;;;;;;0.82;0.70;;;24.80;53.00;;;;;;5047443;28;20037;-58
2021/08/06 11:50:36;;;;;;;0.63;0.63;;;24.80;53.10;;;;;;5046308;28;20419;-57
2021/08/06 11:53:03;;;;;;;1.00;0.85;;;24.80;53.10;;;;;;5046429;28;20024;-60
2021/08/06 11:55:30;;;;;;;0.73;0.63;;;24.90;53.10;;;;;;5045192;28;20037;-63
2021/08/06 11:57:57;;;;;;;2.63;0.90;;;24.90;53.10;;;;;;5039058;28;20798;-61
2021/08/06 12:00:29;;;;;;;2.17;0.80;;;24.90;53.10;;;;;;5039077;28;20097;-60
2021/08/06 12:03:12;;;;;;;1.10;0.80;;;24.90;53.00;;;;;;5042207;28;20112;-59
2021/08/06 12:05:42;;;;;;;0.93;0.70;;;25.00;53.00;;;;;;5045385;28;20627;-61
2021/08/06 12:08:12;;;;;;;1.15;0.70;;;25.00;52.90;;;;;;5043278;28;20036;-60
2021/08/06 12:10:38;;;;;;;1.27;0.80;;;25.00;52.90;;;;;;5042384;28;20025;-61
2021/08/06 12:13:09;;;;;;;1.17;0.80;;;25.10;52.90;;;;;;5041645;28;20071;-58
2021/08/06 12:15:35;;;;;;;0.90;0.70;;;25.10;52.80;;;;;;5042120;28;20031;-60
2021/08/06 12:18:20;;;;;;;1.08;0.80;;;25.10;52.80;;;;;;5042622;28;20035;-60
2021/08/06 12:20:53;;;;;;;1.13;0.80;;;25.10;52.70;;;;;;5039935;28;20032;-62
2021/08/06 12:23:20;;;;;;;1.00;0.70;;;25.10;52.80;;;;;;5041213;28;20119;-61
2021/08/06 12:26:04;;;;;;;0.70;0.70;;;25.10;52.70;;;;;;5043303;28;20083;-62
2021/08/06 12:28:30;;;;;;;1.27;0.70;;;25.10;52.70;;;;;;5041323;28;20086;-59
2021/08/06 12:31:08;;;;;;;1.13;0.80;;;25.10;52.60;;;;;;5038649;28;20136;-62
2021/08/06 12:33:34;;;;;;;0.75;0.60;;;25.10;52.60;;;;;;5039774;28;21077;-61
2021/08/06 12:36:21;;;;;;;1.02;0.65;;;25.10;52.60;;;;;;5042208;28;20040;-62
2021/08/06 12:38:49;;;;;;;0.98;0.68;;;25.20;52.60;;;;;;5042059;28;20147;-63
2021/08/06 12:41:30;;;;;;;0.70;0.60;;;25.20;52.70;;;;;;5046641;28;20033;-61
2021/08/06 12:44:14;;;;;;;1.05;0.70;;;25.20;52.60;;;;;;5040520;28;20025;-60
2021/08/06 12:46:40;;;;;;;0.70;0.68;;;25.20;52.60;;;;;;5041658;28;20036;-62
2021/08/06 12:49:08;;;;;;;0.70;0.60;;;25.20;52.60;;;;;;5041169;28;20024;-61
2021/08/06 12:51:37;;;;;;;0.73;0.65;;;25.20;52.60;;;;;;5039714;28;20132;-61
2021/08/06 12:54:03;;;;;;;1.00;0.80;;;25.10;52.50;;;;;;5037802;28;20128;-60